createdAt,value
2018-08-19T00:01:10.308Z,15.60
2018-08-19T00:03:38.760Z,15.60
2018-08-19T00:06:07.341Z,15.60
2018-08-19T00:08:35.772Z,15.70
2018-08-19T00:11:05.999Z,15.60
2018-08-19T00:13:35.364Z,15.60
2018-08-19T00:16:04.084Z,15.50
2018-08-19T00:18:33.218Z,15.40
2018-08-19T00:21:01.770Z,15.40
2018-08-19T00:23:34.898Z,15.50
2018-08-19T00:26:03.855Z,15.50
2018-08-19T00:28:32.217Z,15.50
2018-08-19T00:31:00.689Z,15.40
2018-08-19T00:33:29.084Z,15.60
2018-08-19T00:35:57.498Z,15.70
2018-08-19T00:38:25.810Z,15.60
2018-08-19T00:40:54.171Z,15.60
2018-08-19T00:43:23.341Z,15.60
2018-08-19T00:45:51.762Z,15.60
2018-08-19T00:48:20.074Z,15.50
2018-08-19T00:50:48.535Z,15.50
2018-08-19T00:53:16.895Z,15.40
2018-08-19T00:55:49.385Z,15.30
2018-08-19T00:58:19.501Z,15.20
2018-08-19T01:00:47.953Z,15.10
2018-08-19T01:03:16.279Z,15.00
2018-08-19T01:05:44.582Z,14.90
2018-08-19T01:08:14.050Z,14.90
2018-08-19T01:10:42.695Z,15.00
2018-08-19T01:13:12.170Z,15.00
2018-08-19T01:15:40.527Z,15.10
2018-08-19T01:18:09.015Z,14.90
2018-08-19T01:20:37.453Z,14.80
2018-08-19T01:23:05.850Z,14.70
2018-08-19T01:25:34.196Z,14.70
2018-08-19T01:28:02.620Z,14.60
2018-08-19T01:30:31.065Z,14.60
2018-08-19T01:32:59.528Z,14.60
2018-08-19T01:35:32.010Z,14.60
2018-08-19T01:38:00.567Z,14.60
2018-08-19T01:40:28.898Z,14.70
2018-08-19T01:42:57.322Z,14.70
2018-08-19T01:45:26.035Z,14.70
2018-08-19T01:47:54.341Z,14.70
2018-08-19T01:50:22.673Z,14.70
2018-08-19T01:52:51.147Z,14.70
2018-08-19T01:55:19.905Z,14.70
2018-08-19T01:57:49.441Z,14.70
2018-08-19T02:00:18.386Z,14.70
2018-08-19T02:02:56.799Z,14.60
2018-08-19T02:05:25.400Z,14.70
2018-08-19T02:07:56.674Z,14.60
2018-08-19T02:10:25.428Z,14.70
2018-08-19T02:12:55.117Z,14.60
2018-08-19T02:15:24.739Z,14.60
2018-08-19T02:17:57.452Z,14.50
2018-08-19T02:20:28.161Z,14.40
2018-08-19T02:22:58.434Z,14.50
2018-08-19T02:25:29.239Z,14.50
2018-08-19T02:27:57.643Z,14.40
2018-08-19T02:30:26.359Z,14.30
2018-08-19T02:32:55.701Z,14.40
2018-08-19T02:35:24.115Z,14.50
2018-08-19T02:37:52.449Z,14.50
2018-08-19T02:40:24.907Z,14.50
2018-08-19T02:42:53.302Z,14.50
2018-08-19T02:45:21.817Z,14.60
2018-08-19T02:47:50.116Z,14.60
2018-08-19T02:50:18.448Z,14.60
2018-08-19T02:52:46.750Z,14.60
2018-08-19T02:55:15.454Z,14.40
2018-08-19T02:57:43.795Z,14.30
2018-08-19T03:00:12.780Z,14.20
2018-08-19T03:02:42.272Z,14.00
2018-08-19T03:05:12.335Z,13.90
2018-08-19T03:07:40.993Z,13.90
2018-08-19T03:10:11.493Z,14.00
2018-08-19T03:12:40.479Z,14.10
2018-08-19T03:15:10.399Z,14.10
2018-08-19T03:17:39.211Z,14.10
2018-08-19T03:20:10.580Z,14.10
2018-08-19T03:22:39.043Z,14.00
2018-08-19T03:25:08.477Z,14.00
2018-08-19T03:27:36.821Z,14.00
2018-08-19T03:30:09.809Z,14.00
2018-08-19T03:32:46.174Z,14.10
2018-08-19T03:35:18.696Z,14.10
2018-08-19T03:37:47.376Z,14.20
2018-08-19T03:40:15.773Z,14.30
2018-08-19T03:42:44.157Z,14.30
2018-08-19T03:45:16.666Z,14.20
2018-08-19T03:47:45.558Z,14.10
2018-08-19T03:50:18.381Z,14.10
2018-08-19T03:52:46.678Z,14.10
2018-08-19T03:55:19.164Z,14.10
2018-08-19T03:57:48.397Z,14.00
2018-08-19T04:00:18.274Z,14.00
2018-08-19T04:02:46.658Z,14.10
2018-08-19T04:05:15.037Z,14.10
2018-08-19T04:07:44.128Z,14.00
2018-08-19T04:10:12.912Z,14.00
2018-08-19T04:12:41.306Z,14.00
2018-08-19T04:15:10.421Z,14.10
2018-08-19T04:17:39.089Z,14.10
2018-08-19T04:20:07.592Z,14.10
2018-08-19T04:22:36.017Z,14.10
2018-08-19T04:25:04.721Z,14.10
2018-08-19T04:27:33.087Z,14.10
2018-08-19T04:30:01.571Z,14.00
2018-08-19T04:32:31.962Z,14.00
2018-08-19T04:35:01.596Z,14.10
2018-08-19T04:37:30.268Z,14.10
2018-08-19T04:39:59.691Z,14.20
2018-08-19T04:42:28.033Z,14.30
2018-08-19T04:44:56.849Z,14.40
2018-08-19T04:47:28.370Z,14.60
2018-08-19T04:49:56.773Z,14.70
2018-08-19T04:52:25.481Z,14.90
2018-08-19T04:54:55.416Z,15.10
2018-08-19T04:57:23.861Z,15.30
2018-08-19T04:59:52.340Z,15.40
2018-08-19T05:02:21.176Z,15.60
2018-08-19T05:04:49.472Z,15.80
2018-08-19T05:07:17.824Z,16.00
2018-08-19T05:09:46.480Z,16.20
2018-08-19T05:12:15.352Z,16.40
2018-08-19T05:14:43.729Z,16.60
2018-08-19T05:17:12.587Z,16.90
2018-08-19T05:19:40.969Z,17.20
2018-08-19T05:22:13.218Z,17.60
2018-08-19T05:24:42.245Z,17.90
2018-08-19T05:27:10.777Z,18.20
2018-08-19T05:29:39.232Z,18.40
2018-08-19T05:32:12.841Z,18.60
2018-08-19T05:34:42.107Z,18.90
2018-08-19T05:37:10.602Z,19.10
2018-08-19T05:39:45.039Z,19.40
2018-08-19T05:42:14.029Z,19.70
2018-08-19T05:44:42.877Z,19.90
2018-08-19T05:47:12.695Z,20.00
2018-08-19T05:49:43.267Z,20.30
2018-08-19T05:52:15.909Z,20.50
2018-08-19T05:54:48.576Z,20.50
2018-08-19T05:57:17.615Z,20.60
2018-08-19T05:59:47.208Z,20.60
2018-08-19T06:02:16.259Z,20.90
2018-08-19T06:04:45.200Z,21.10
2018-08-19T06:07:16.717Z,21.20
2018-08-19T06:09:45.044Z,21.40
2018-08-19T06:12:13.429Z,21.20
2018-08-19T06:14:41.805Z,21.40
2018-08-19T06:17:10.164Z,21.60
2018-08-19T06:19:38.628Z,22.00
2018-08-19T06:22:07.330Z,22.00
2018-08-19T06:24:35.770Z,22.00
2018-08-19T06:27:04.028Z,21.90
2018-08-19T06:29:45.478Z,22.10
2018-08-19T06:32:20.695Z,22.40
2018-08-19T06:34:49.855Z,22.80
2018-08-19T06:37:18.917Z,23.20
2018-08-19T06:39:47.677Z,23.40
2018-08-19T06:42:16.092Z,23.60
2018-08-19T06:44:44.668Z,23.90
2018-08-19T06:47:13.164Z,24.00
2018-08-19T06:49:45.684Z,23.70
2018-08-19T06:52:14.393Z,24.00
2018-08-19T06:54:42.730Z,24.00
2018-08-19T06:57:11.419Z,24.00
2018-08-19T06:59:39.863Z,24.00
2018-08-19T07:02:08.678Z,24.10
2018-08-19T07:04:40.682Z,24.30
2018-08-19T07:07:11.020Z,24.30
2018-08-19T07:09:39.744Z,24.30
2018-08-19T07:12:16.334Z,24.50
2018-08-19T07:14:45.173Z,24.50
2018-08-19T07:17:13.701Z,24.60
2018-08-19T07:19:42.119Z,24.80
2018-08-19T07:22:14.004Z,25.10
2018-08-19T07:24:42.413Z,25.40
2018-08-19T07:27:11.094Z,25.60
2018-08-19T07:29:39.538Z,25.50
2018-08-19T07:32:08.855Z,26.10
2018-08-19T07:34:37.242Z,25.90
2018-08-19T07:37:05.715Z,25.90
2018-08-19T07:39:39.421Z,25.80
2018-08-19T07:42:08.181Z,26.00
2018-08-19T07:44:36.855Z,26.10
2018-08-19T07:47:05.330Z,26.20
2018-08-19T07:49:33.738Z,26.40
2018-08-19T07:52:02.243Z,26.50
2018-08-19T07:54:30.523Z,26.40
2018-08-19T07:57:03.289Z,26.50
2018-08-19T07:59:31.645Z,26.80
2018-08-19T08:02:00.045Z,27.00
2018-08-19T08:04:32.634Z,26.90
2018-08-19T08:07:01.013Z,26.80
2018-08-19T08:09:29.306Z,26.90
2018-08-19T08:11:57.665Z,26.90
2018-08-19T08:14:26.176Z,27.20
2018-08-19T08:16:55.043Z,27.80
2018-08-19T08:19:23.989Z,28.20
2018-08-19T08:21:54.337Z,27.80
2018-08-19T08:24:22.718Z,26.70
2018-08-19T08:26:55.224Z,26.60
2018-08-19T08:29:23.766Z,27.10
2018-08-19T08:31:56.546Z,26.50
2018-08-19T08:34:26.518Z,26.50
2018-08-19T08:36:58.885Z,27.00
2018-08-19T08:39:27.278Z,27.30
2018-08-19T08:41:56.807Z,27.00
2018-08-19T08:44:25.294Z,26.90
2018-08-19T08:46:54.243Z,27.10
2018-08-19T08:49:22.724Z,26.90
2018-08-19T08:51:51.148Z,27.10
2018-08-19T08:54:19.689Z,26.80
2018-08-19T08:56:48.072Z,26.10
2018-08-19T08:59:16.433Z,25.70
2018-08-19T09:01:44.835Z,26.40
2018-08-19T09:04:13.203Z,26.40
2018-08-19T09:06:41.613Z,25.80
2018-08-19T09:09:10.035Z,26.10
2018-08-19T09:11:38.443Z,26.30
2018-08-19T09:14:06.845Z,26.70
2018-08-19T09:16:35.319Z,26.90
2018-08-19T09:19:03.709Z,26.10
2018-08-19T09:21:32.183Z,26.20
2018-08-19T09:24:00.542Z,26.40
2018-08-19T09:26:28.874Z,26.80
2018-08-19T09:28:57.257Z,27.50
2018-08-19T09:31:26.184Z,28.20
2018-08-19T09:33:54.667Z,28.00
2018-08-19T09:36:23.136Z,27.80
2018-08-19T09:38:51.939Z,27.90
2018-08-19T09:41:20.233Z,27.90
2018-08-19T09:43:48.540Z,27.40
2018-08-19T09:46:16.859Z,27.40
2018-08-19T09:48:45.349Z,27.40
2018-08-19T09:51:15.918Z,27.80
2018-08-19T09:53:44.369Z,27.90
2018-08-19T09:56:12.787Z,28.20
2018-08-19T09:58:43.151Z,28.40
2018-08-19T10:01:15.767Z,28.60
2018-08-19T10:03:44.090Z,28.80
2018-08-19T10:06:12.457Z,28.70
2018-08-19T10:08:41.686Z,28.60
2018-08-19T10:11:09.990Z,28.70
2018-08-19T10:13:38.398Z,29.20
2018-08-19T10:16:06.734Z,29.70
2018-08-19T10:18:35.102Z,29.30
2018-08-19T10:21:07.644Z,29.00
2018-08-19T10:23:35.986Z,29.20
2018-08-19T10:26:04.381Z,29.20
2018-08-19T10:28:33.423Z,28.50
2018-08-19T10:31:02.153Z,28.40
2018-08-19T10:33:32.269Z,28.20
2018-08-19T10:36:00.742Z,28.50
2018-08-19T10:38:29.071Z,28.90
2018-08-19T10:41:01.705Z,29.00
2018-08-19T10:43:30.179Z,28.70
2018-08-19T10:45:58.509Z,28.50
2018-08-19T10:48:26.936Z,28.50
2018-08-19T10:50:55.373Z,27.90
2018-08-19T10:53:27.355Z,27.60
2018-08-19T10:56:01.457Z,27.40
2018-08-19T10:58:29.951Z,27.50
2018-08-19T11:00:58.298Z,27.70
2018-08-19T11:03:26.719Z,28.10
2018-08-19T11:05:56.296Z,28.10
2018-08-19T11:08:24.716Z,28.40
2018-08-19T11:10:53.093Z,28.30
2018-08-19T11:13:23.144Z,28.30
2018-08-19T11:15:53.402Z,28.80
2018-08-19T11:18:28.095Z,28.30
2018-08-19T11:21:01.742Z,28.20
2018-08-19T11:23:30.077Z,28.30
2018-08-19T11:25:58.985Z,28.00
2018-08-19T11:28:37.330Z,28.30
2018-08-19T11:31:06.684Z,28.70
2018-08-19T11:33:37.872Z,27.90
2018-08-19T11:36:06.411Z,27.90
2018-08-19T11:38:34.847Z,27.80
2018-08-19T11:41:05.064Z,28.40
2018-08-19T11:43:36.259Z,28.40
2018-08-19T11:46:05.616Z,28.50
2018-08-19T11:48:33.982Z,28.80
2018-08-19T11:51:05.960Z,29.20
2018-08-19T11:53:34.632Z,29.00
2018-08-19T11:56:03.068Z,28.60
2018-08-19T11:58:37.780Z,28.50
2018-08-19T12:01:08.534Z,29.10
2018-08-19T12:03:49.690Z,29.50
2018-08-19T12:06:19.016Z,29.20
2018-08-19T12:08:48.158Z,28.90
2018-08-19T12:11:18.786Z,29.10
2018-08-19T12:13:51.181Z,28.80
2018-08-19T12:16:21.308Z,29.10
2018-08-19T12:18:50.085Z,29.10
2018-08-19T12:21:18.598Z,29.70
2018-08-19T12:23:48.569Z,30.10
2018-08-19T12:26:16.956Z,30.10
2018-08-19T12:28:45.805Z,29.20
2018-08-19T12:31:15.987Z,29.00
2018-08-19T12:33:44.385Z,29.20
2018-08-19T12:36:12.742Z,29.10
2018-08-19T12:38:41.153Z,29.20
2018-08-19T12:41:09.603Z,29.30
2018-08-19T12:43:41.093Z,29.20
2018-08-19T12:46:09.484Z,29.00
2018-08-19T12:48:37.960Z,29.30
2018-08-19T12:51:06.360Z,30.30
2018-08-19T12:53:35.191Z,30.50
2018-08-19T12:56:03.575Z,30.00
2018-08-19T12:58:31.996Z,29.20
2018-08-19T13:01:00.405Z,29.30
2018-08-19T13:03:29.060Z,30.10
2018-08-19T13:06:02.825Z,29.90
2018-08-19T13:08:31.362Z,29.90
2018-08-19T13:11:05.543Z,30.10
2018-08-19T13:13:34.495Z,30.20
2018-08-19T13:16:02.941Z,30.00
2018-08-19T13:18:35.705Z,29.90
2018-08-19T13:21:08.174Z,29.70
2018-08-19T13:23:36.823Z,29.60
2018-08-19T13:26:05.429Z,29.70
2018-08-19T13:28:37.053Z,29.90
2018-08-19T13:31:05.912Z,29.50
2018-08-19T13:33:35.351Z,29.40
2018-08-19T13:36:04.221Z,30.20
2018-08-19T13:38:35.149Z,29.80
2018-08-19T13:41:05.734Z,30.00
2018-08-19T13:43:35.170Z,30.00
2018-08-19T13:46:04.142Z,29.50
2018-08-19T13:48:33.024Z,29.60
2018-08-19T13:51:01.907Z,29.30
2018-08-19T13:53:30.953Z,29.50
2018-08-19T13:55:59.370Z,30.00
2018-08-19T13:58:28.151Z,29.90
2018-08-19T14:00:56.595Z,29.10
2018-08-19T14:03:25.731Z,29.00
2018-08-19T14:05:54.155Z,29.10
2018-08-19T14:08:22.646Z,29.30
2018-08-19T14:10:51.059Z,29.50
2018-08-19T14:13:19.707Z,29.00
2018-08-19T14:15:48.161Z,28.50
2018-08-19T14:18:17.182Z,28.00
2018-08-19T14:20:45.648Z,27.70
2018-08-19T14:23:14.268Z,27.30
2018-08-19T14:25:42.995Z,27.00
2018-08-19T14:28:11.551Z,27.00
2018-08-19T14:30:40.152Z,27.00
2018-08-19T14:33:09.435Z,27.10
2018-08-19T14:35:38.039Z,27.00
2018-08-19T14:38:06.929Z,27.10
2018-08-19T14:40:35.489Z,27.00
2018-08-19T14:43:04.160Z,26.70
2018-08-19T14:45:33.286Z,26.50
2018-08-19T14:48:01.857Z,26.40
2018-08-19T14:50:30.430Z,26.50
2018-08-19T14:52:59.175Z,26.60
2018-08-19T14:55:27.764Z,26.60
2018-08-19T14:57:56.326Z,26.70
2018-08-19T15:00:25.148Z,26.70
2018-08-19T15:02:53.601Z,26.60
2018-08-19T15:05:22.025Z,26.60
2018-08-19T15:07:51.054Z,26.60
2018-08-19T15:10:23.227Z,26.50
2018-08-19T15:12:52.460Z,26.40
2018-08-19T15:15:21.022Z,26.40
2018-08-19T15:17:53.647Z,26.50
2018-08-19T15:20:26.837Z,26.50
2018-08-19T15:23:04.741Z,26.40
2018-08-19T15:25:33.567Z,26.30
2018-08-19T15:28:02.168Z,26.30
2018-08-19T15:30:30.782Z,26.40
2018-08-19T15:33:00.131Z,26.50
2018-08-19T15:35:28.694Z,26.40
2018-08-19T15:37:57.224Z,26.40
2018-08-19T15:40:34.902Z,26.40
2018-08-19T15:43:03.612Z,26.40
2018-08-19T15:45:32.607Z,26.40
2018-08-19T15:48:01.448Z,26.40
2018-08-19T15:50:30.356Z,26.40
2018-08-19T15:52:59.650Z,26.30
2018-08-19T15:55:28.186Z,26.40
2018-08-19T15:57:59.376Z,26.20
2018-08-19T16:00:28.294Z,26.10
2018-08-19T16:02:58.079Z,26.20
2018-08-19T16:05:26.579Z,26.20
2018-08-19T16:07:55.076Z,26.10
2018-08-19T16:10:25.759Z,26.00
2018-08-19T16:12:56.935Z,26.00
2018-08-19T16:15:27.125Z,25.90
2018-08-19T16:17:56.655Z,26.00
2018-08-19T16:20:25.852Z,26.00
2018-08-19T16:22:54.240Z,26.00
2018-08-19T16:25:22.679Z,26.10
2018-08-19T16:27:51.919Z,26.00
2018-08-19T16:30:20.933Z,25.90
2018-08-19T16:32:49.541Z,25.90
2018-08-19T16:35:21.116Z,25.80
2018-08-19T16:37:50.009Z,25.80
2018-08-19T16:40:18.710Z,25.80
2018-08-19T16:42:47.145Z,25.70
2018-08-19T16:45:16.813Z,25.70
2018-08-19T16:47:45.780Z,25.70
2018-08-19T16:50:14.535Z,25.60
2018-08-19T16:52:43.677Z,25.50
2018-08-19T16:55:12.096Z,25.40
2018-08-19T16:57:42.153Z,25.40
2018-08-19T17:00:10.803Z,25.40
2018-08-19T17:02:39.587Z,25.40
2018-08-19T17:05:17.063Z,25.40
2018-08-19T17:07:45.475Z,25.40
2018-08-19T17:10:14.012Z,25.30
2018-08-19T17:12:42.313Z,25.30
2018-08-19T17:15:10.781Z,25.20
2018-08-19T17:17:39.184Z,25.20
2018-08-19T17:20:08.471Z,25.10
2018-08-19T17:22:37.245Z,25.20
2018-08-19T17:25:06.262Z,25.10
2018-08-19T17:27:34.618Z,25.10
2018-08-19T17:30:05.473Z,25.10
2018-08-19T17:32:33.948Z,25.00
2018-08-19T17:35:02.289Z,24.90
2018-08-19T17:37:30.823Z,24.90
2018-08-19T17:39:59.864Z,24.90
2018-08-19T17:42:28.330Z,24.80
2018-08-19T17:44:56.831Z,24.80
2018-08-19T17:47:25.242Z,24.70
2018-08-19T17:49:53.953Z,24.70
2018-08-19T17:52:22.671Z,24.60
2018-08-19T17:54:51.125Z,24.60
2018-08-19T17:57:19.468Z,24.50
2018-08-19T17:59:48.159Z,24.40
2018-08-19T18:02:16.709Z,24.40
2018-08-19T18:04:46.241Z,24.30
2018-08-19T18:07:20.382Z,24.20
2018-08-19T18:09:52.921Z,24.20
2018-08-19T18:12:21.843Z,24.10
2018-08-19T18:14:50.431Z,24.10
2018-08-19T18:17:19.201Z,24.00
2018-08-19T18:19:47.739Z,23.90
2018-08-19T18:22:18.593Z,23.90
2018-08-19T18:24:52.186Z,23.80
2018-08-19T18:27:20.933Z,23.70
2018-08-19T18:29:49.340Z,23.60
2018-08-19T18:32:18.158Z,23.50
2018-08-19T18:34:47.790Z,23.40
2018-08-19T18:37:16.379Z,23.30
2018-08-19T18:39:44.769Z,23.30
2018-08-19T18:42:19.423Z,23.20
2018-08-19T18:44:48.572Z,23.10
2018-08-19T18:47:17.349Z,22.90
2018-08-19T18:49:45.780Z,22.80
2018-08-19T18:52:18.452Z,22.70
2018-08-19T18:54:48.123Z,22.70
2018-08-19T18:57:17.052Z,22.50
2018-08-19T18:59:45.352Z,22.50
2018-08-19T19:02:13.823Z,22.50
2018-08-19T19:04:42.309Z,22.50
2018-08-19T19:07:10.760Z,22.40
2018-08-19T19:09:43.427Z,22.30
2018-08-19T19:12:12.046Z,22.30
2018-08-19T19:14:40.897Z,22.20
2018-08-19T19:17:09.385Z,22.10
2018-08-19T19:19:41.907Z,22.00
2018-08-19T19:22:11.913Z,21.90
2018-08-19T19:24:41.196Z,21.90
2018-08-19T19:27:10.375Z,21.90
2018-08-19T19:29:39.038Z,21.80
2018-08-19T19:32:15.052Z,21.70
2018-08-19T19:34:43.482Z,21.70
2018-08-19T19:37:12.778Z,21.50
2018-08-19T19:39:41.401Z,21.40
2018-08-19T19:42:10.848Z,21.40
2018-08-19T19:44:39.359Z,21.30
2018-08-19T19:47:08.952Z,21.20
2018-08-19T19:49:45.366Z,21.10
2018-08-19T19:52:13.719Z,21.10
2018-08-19T19:54:42.125Z,21.10
2018-08-19T19:57:10.473Z,21.00
2018-08-19T19:59:38.880Z,21.00
2018-08-19T20:02:11.328Z,20.90
2018-08-19T20:04:39.848Z,20.80
2018-08-19T20:07:09.044Z,20.80
2018-08-19T20:09:37.466Z,20.70
2018-08-19T20:12:09.086Z,20.60
2018-08-19T20:14:41.632Z,20.60
2018-08-19T20:17:10.149Z,20.60
2018-08-19T20:19:38.562Z,20.60
2018-08-19T20:22:11.516Z,20.60
2018-08-19T20:24:39.896Z,20.50
2018-08-19T20:27:08.685Z,20.40
2018-08-19T20:29:37.331Z,20.30
2018-08-19T20:32:05.902Z,20.30
2018-08-19T20:34:34.481Z,20.30
2018-08-19T20:37:02.841Z,20.30
2018-08-19T20:39:31.485Z,20.30
2018-08-19T20:42:02.994Z,20.30
2018-08-19T20:44:31.371Z,20.30
2018-08-19T20:46:59.972Z,20.40
2018-08-19T20:49:28.465Z,20.30
2018-08-19T20:51:57.520Z,20.30
2018-08-19T20:54:25.853Z,20.20
2018-08-19T20:56:54.382Z,20.20
2018-08-19T20:59:27.058Z,20.10
2018-08-19T21:01:55.790Z,20.00
2018-08-19T21:04:24.299Z,19.90
2018-08-19T21:06:52.916Z,19.90
2018-08-19T21:09:21.630Z,19.90
2018-08-19T21:11:50.261Z,19.80
2018-08-19T21:14:19.945Z,19.80
2018-08-19T21:16:48.290Z,19.80
2018-08-19T21:19:16.860Z,19.80
2018-08-19T21:21:45.464Z,19.80
2018-08-19T21:24:13.672Z,19.70
2018-08-19T21:26:49.319Z,19.70
2018-08-19T21:29:18.060Z,19.70
2018-08-19T21:31:46.609Z,19.70
2018-08-19T21:34:15.333Z,19.70
2018-08-19T21:36:44.036Z,19.70
2018-08-19T21:39:12.641Z,19.80
2018-08-19T21:41:47.319Z,19.90
2018-08-19T21:44:16.440Z,20.00
2018-08-19T21:46:45.536Z,20.10
2018-08-19T21:49:14.927Z,20.10
2018-08-19T21:51:43.308Z,20.10
2018-08-19T21:54:13.129Z,20.10
2018-08-19T21:56:41.936Z,20.10
2018-08-19T21:59:14.802Z,20.10
2018-08-19T22:01:49.393Z,20.00
2018-08-19T22:04:18.398Z,20.00
2018-08-19T22:06:47.354Z,20.00
2018-08-19T22:09:24.964Z,20.10
2018-08-19T22:11:55.218Z,20.10
2018-08-19T22:14:24.136Z,20.10
2018-08-19T22:16:56.791Z,20.20
2018-08-19T22:19:25.572Z,20.20
2018-08-19T22:21:54.005Z,20.20
2018-08-19T22:24:22.429Z,20.20
2018-08-19T22:26:50.855Z,20.20
2018-08-19T22:29:23.311Z,20.10
2018-08-19T22:31:53.039Z,20.10
2018-08-19T22:34:21.581Z,20.10
2018-08-19T22:36:50.135Z,20.10
2018-08-19T22:39:20.084Z,20.10
2018-08-19T22:41:49.189Z,20.10
2018-08-19T22:44:17.934Z,20.20
2018-08-19T22:46:46.611Z,20.20
2018-08-19T22:49:15.003Z,20.20
2018-08-19T22:51:43.507Z,20.20
2018-08-19T22:54:11.993Z,20.10
2018-08-19T22:56:40.580Z,20.20
2018-08-19T22:59:09.815Z,20.20
2018-08-19T23:01:42.362Z,20.20
2018-08-19T23:04:10.831Z,20.20
2018-08-19T23:06:39.404Z,20.20
2018-08-19T23:09:10.815Z,20.20
2018-08-19T23:11:43.670Z,20.20
2018-08-19T23:14:20.833Z,20.30
2018-08-19T23:16:49.225Z,20.30
2018-08-19T23:19:19.394Z,20.30
2018-08-19T23:21:47.955Z,20.30
2018-08-19T23:24:16.499Z,20.30
2018-08-19T23:26:44.956Z,20.30
2018-08-19T23:29:13.363Z,20.30
2018-08-19T23:31:43.962Z,20.30
2018-08-19T23:34:12.467Z,20.40
2018-08-19T23:36:40.855Z,20.40
2018-08-19T23:39:10.176Z,20.40
2018-08-19T23:41:38.601Z,20.40
2018-08-19T23:44:07.187Z,20.30
2018-08-19T23:46:35.547Z,20.30
2018-08-19T23:49:03.943Z,20.40
2018-08-19T23:51:32.622Z,20.40
2018-08-19T23:54:02.304Z,20.40
2018-08-19T23:56:31.433Z,20.40
2018-08-19T23:59:00.664Z,20.40
